Aérodrome :
LOGIN :

S'inscrire | Disclaimer

   EN    FR    IT 

 










Légende :    VFR   VFR Marginal   IFR   IFR Intensif   IFR Très Intensif
Visi : 
Plafond : 
>= 8 km
>= 3000ft
5 à 8 km
1000 à 3000 ft
1500m à 5 km
500 à 1000 ft
800 à 1500m
200 à 500 ft
< 800m
< 200 ft
Symboles :   Orages  Brouillard  Fortes neiges  Fortes précipitations  Vent > 20 kt
SIGMETs :   Divers  Orages  Givrage  Turbulence  Onde Orograph.  Cendres Volcan.







- Altitude de l'aérodrome : 1766 ft


ETHL - Laupheim AB

DERNIER METAR :
  • 221730Z 30001KT 6000 -RA SCT010 OVC025 06/06 Q1011 RERA WHT

METARs EXPIRÉS :
  • 221720Z 33001KT 3700 RA BR BKN008 OVC022 06/06 Q1011 GRN
  • 221620Z VRB01KT 1600 +RA BR BKN006 OVC013 06/06 Q1010 YLO
  • 221600Z 02001KT 0300 +RA FG OVC004 06/06 Q1009 RED FCST CANCEL
  • 221520Z 32001KT 0700 R27/1400D +RA FG BKN004 OVC012 06/06 Q1009 RED RED TEMPO AMB

TAF AMD TAF ETHL
Valide du 22 à 15h jusqu'au 23 à 00h UTC


221526Z 2215/2224 VRB03KT 0800 RA BKN004
TEMPO 2215/2224 23005KT 1500 -RA BR BKN006 BKN010 CANCEL 1600
Pas de NOTAMs connus pour ce terrain.



MET'MAP, la Météo Aéronautique d'un coup d'oeil ! - Copyright ORBIFLY Décembre 2007 - Disclaimer

ORBIFLY MET'MAP TEAM :

Programmation & Développement : Alexandra Zaïnal
Conception & Développement : Baudouin d'Aumeries
Co-Programmation & Développement : Marc-Olivier Méhu
Soutien technique & logistique : Manuel Goepfert

Contact : metmap@orbifly.com




SOURCES & CREDITS :

   NOAA